Time;durP1;ratioP1;P1;durP2;ratioP2;P2;SDS_P1;SDS_P2;PMS_P1;PMS_P2;Temp;Humidity;BMP_temperature;BMP_pressure;BME280_temperature;BME280_humidity;BME280_pressure;Samples;Min_cycle;Max_cycle;Signal;HPM_P1;HPM_P2
2022/07/31 00:00:08;;;;;;;3.40;3.10;;;20.80;99.90;;;;;;5024484;28;20687;-69
2022/07/31 00:02:35;;;;;;;3.33;3.03;;;20.70;99.90;;;;;;5024230;28;20844;-68
2022/07/31 00:05:02;;;;;;;3.10;2.80;;;20.70;99.90;;;;;;5022229;28;20511;-68
2022/07/31 00:07:27;;;;;;;3.17;2.97;;;20.70;99.90;;;;;;5023425;28;20430;-68
2022/07/31 00:09:54;;;;;;;6.60;3.20;;;20.70;99.90;;;;;;5023773;28;20426;-68
2022/07/31 00:12:21;;;;;;;3.53;3.00;;;20.60;99.90;;;;;;5023874;28;20171;-68
2022/07/31 00:14:46;;;;;;;2.90;2.70;;;20.50;99.90;;;;;;5023985;28;20441;-69
2022/07/31 00:17:12;;;;;;;3.30;3.10;;;20.60;99.90;;;;;;5023551;28;20409;-69
2022/07/31 00:19:38;;;;;;;3.17;2.50;;;20.60;99.90;;;;;;5023616;28;20554;-68
2022/07/31 00:22:04;;;;;;;3.10;2.90;;;20.70;99.90;;;;;;5024021;28;20190;-69
2022/07/31 00:24:29;;;;;;;2.83;2.63;;;20.70;99.90;;;;;;5023585;28;20229;-69
2022/07/31 00:26:55;;;;;;;3.10;2.80;;;20.60;99.90;;;;;;5024084;28;20175;-69
2022/07/31 00:29:21;;;;;;;3.30;3.00;;;20.60;99.90;;;;;;5023432;28;20179;-66
2022/07/31 00:31:46;;;;;;;3.90;3.13;;;20.60;99.90;;;;;;5023894;28;20182;-68
2022/07/31 00:34:12;;;;;;;3.47;2.93;;;20.70;99.90;;;;;;5023129;28;20280;-68
2022/07/31 00:36:38;;;;;;;5.07;3.27;;;20.60;99.90;;;;;;5022468;28;20179;-68
2022/07/31 00:39:04;;;;;;;12.20;3.33;;;20.50;99.90;;;;;;5023403;28;20201;-68
2022/07/31 00:41:44;;;;;;;3.37;2.80;;;20.50;99.90;;;;;;5022530;28;20273;-67
2022/07/31 00:44:11;;;;;;;3.10;2.80;;;20.50;99.90;;;;;;5023252;28;20213;-67
2022/07/31 00:46:36;;;;;;;2.87;2.67;;;20.50;99.90;;;;;;5023715;28;20414;-68
2022/07/31 00:49:03;;;;;;;5.17;3.30;;;20.40;99.90;;;;;;5022903;28;20406;-69
2022/07/31 00:51:28;;;;;;;4.00;3.03;;;20.50;99.90;;;;;;5023373;28;20194;-67
2022/07/31 00:53:54;;;;;;;2.90;2.70;;;20.60;99.90;;;;;;5023169;28;20922;-67
2022/07/31 00:56:20;;;;;;;2.90;2.70;;;20.70;99.90;;;;;;5023373;28;20240;-69
2022/07/31 00:58:46;;;;;;;3.30;3.00;;;20.60;99.90;;;;;;5023010;28;20190;-67
2022/07/31 01:01:12;;;;;;;2.90;2.70;;;20.60;99.90;;;;;;5022925;28;20183;-68
2022/07/31 01:03:37;;;;;;;3.73;3.43;;;20.60;99.90;;;;;;5022058;28;20915;-67
2022/07/31 01:06:05;;;;;;;5.60;2.87;;;20.60;99.90;;;;;;5021687;28;20789;-68
2022/07/31 01:08:31;;;;;;;3.10;2.90;;;20.60;99.90;;;;;;5018063;28;20209;-67
2022/07/31 01:11:26;;;;;;;3.63;3.03;;;20.60;99.90;;;;;;5022678;28;20406;-68
2022/07/31 01:14:01;;;;;;;3.50;3.20;;;20.70;99.90;;;;;;5023052;28;20203;-66
2022/07/31 01:16:31;;;;;;;3.80;3.47;;;20.60;99.90;;;;;;5023366;28;20902;-67
2022/07/31 01:18:57;;;;;;;3.10;2.90;;;20.50;99.90;;;;;;5026822;28;21293;-67
2022/07/31 01:21:38;;;;;;;3.10;2.80;;;20.50;99.90;;;;;;5026424;28;20422;-68
2022/07/31 01:24:22;;;;;;;3.50;3.20;;;20.60;99.90;;;;;;5026400;28;20568;-65
2022/07/31 01:26:51;;;;;;;3.30;3.10;;;20.50;99.90;;;;;;5026826;28;20422;-67
2022/07/31 01:29:31;;;;;;;3.30;3.00;;;20.50;99.90;;;;;;5026732;28;20511;-67
2022/07/31 01:32:26;;;;;;;3.57;3.20;;;20.30;99.90;;;;;;5025884;28;20428;-67
2022/07/31 01:34:56;;;;;;;3.40;3.10;;;20.30;99.90;;;;;;5025152;28;20474;-68
2022/07/31 01:37:35;;;;;;;5.00;3.43;;;20.30;99.90;;;;;;5025908;28;20455;-67
2022/07/31 01:40:26;;;;;;;3.33;3.03;;;20.20;99.90;;;;;;5026496;28;20410;-67
2022/07/31 01:42:59;;;;;;;3.27;2.97;;;20.10;99.90;;;;;;5026266;28;20417;-67
2022/07/31 01:45:27;;;;;;;5.87;3.70;;;20.00;99.90;;;;;;5026188;28;20445;-67
2022/07/31 01:47:54;;;;;;;3.40;3.20;;;20.00;99.90;;;;;;5025532;28;20422;-69
2022/07/31 01:50:20;;;;;;;3.93;3.60;;;19.90;99.90;;;;;;5025748;28;20414;-69
2022/07/31 01:52:47;;;;;;;4.17;3.70;;;19.90;99.90;;;;;;5026983;28;20479;-70
2022/07/31 01:55:15;;;;;;;4.77;4.27;;;19.80;99.90;;;;;;5025717;28;20421;-68
2022/07/31 01:57:42;;;;;;;3.90;3.60;;;19.80;99.90;;;;;;5026004;28;20934;-67
2022/07/31 02:00:09;;;;;;;6.07;4.20;;;19.70;99.90;;;;;;5024905;28;20600;-68
2022/07/31 02:02:36;;;;;;;4.03;3.70;;;19.70;99.90;;;;;;5025812;28;20766;-68
2022/07/31 02:05:06;;;;;;;4.53;4.20;;;19.60;99.90;;;;;;5024392;28;20531;-69
2022/07/31 02:07:35;;;;;;;4.57;4.17;;;19.60;99.90;;;;;;5025274;28;20541;-69
2022/07/31 02:10:02;;;;;;;4.20;3.90;;;19.60;99.90;;;;;;5025981;28;20452;-69
2022/07/31 02:12:28;;;;;;;5.53;4.20;;;19.60;99.90;;;;;;5025589;28;20437;-69
2022/07/31 02:14:55;;;;;;;3.93;3.63;;;19.50;99.90;;;;;;5041411;23;20434;-69
2022/07/31 02:17:21;;;;;;;9.63;4.30;;;19.50;99.90;;;;;;5026811;28;20409;-68
2022/07/31 02:19:50;;;;;;;4.33;4.03;;;19.50;99.90;;;;;;5022183;28;20911;-69
2022/07/31 02:22:15;;;;;;;4.60;3.97;;;19.50;99.90;;;;;;5008913;28;20423;-69
2022/07/31 02:24:41;;;;;;;4.40;4.00;;;19.50;99.90;;;;;;5014652;28;20483;-69
2022/07/31 02:27:09;;;;;;;5.33;4.10;;;19.40;99.90;;;;;;5016783;28;20638;-68
2022/07/31 02:29:35;;;;;;;5.43;5.03;;;19.20;99.90;;;;;;5005851;28;20567;-69
2022/07/31 02:32:02;;;;;;;4.97;4.50;;;19.20;99.90;;;;;;5008760;28;20418;-68
2022/07/31 02:34:29;;;;;;;4.80;4.30;;;19.20;99.90;;;;;;5018801;28;20739;-69
2022/07/31 02:36:56;;;;;;;4.77;4.47;;;19.20;99.90;;;;;;5021359;28;20445;-69
2022/07/31 02:39:23;;;;;;;10.60;4.47;;;19.10;99.90;;;;;;5025821;28;20974;-67
2022/07/31 02:41:50;;;;;;;5.13;4.73;;;19.10;99.90;;;;;;5011801;28;21101;-69
2022/07/31 02:44:17;;;;;;;5.10;4.30;;;19.00;99.90;;;;;;5006347;28;20597;-69
2022/07/31 02:46:43;;;;;;;4.30;3.63;;;19.00;99.90;;;;;;5023020;28;20501;-71
2022/07/31 02:49:12;;;;;;;4.70;4.30;;;19.00;99.90;;;;;;5025592;28;20406;-71
2022/07/31 02:51:38;;;;;;;3.97;3.67;;;18.90;99.90;;;;;;5007915;28;20442;-71
2022/07/31 02:54:04;;;;;;;4.07;3.60;;;18.90;99.90;;;;;;5005649;28;20411;-69
2022/07/31 02:56:31;;;;;;;4.30;3.93;;;19.00;99.90;;;;;;5005612;28;20439;-70
2022/07/31 02:58:57;;;;;;;3.83;3.40;;;19.00;99.90;;;;;;5018040;28;21258;-69
2022/07/31 03:01:23;;;;;;;6.30;4.10;;;19.10;99.90;;;;;;5025197;28;20414;-69
2022/07/31 03:03:49;;;;;;;5.40;3.83;;;19.20;99.90;;;;;;5004016;28;20810;-68
2022/07/31 03:06:15;;;;;;;5.87;5.27;;;19.20;99.90;;;;;;5007820;28;20242;-68
2022/07/31 03:08:41;;;;;;;5.40;4.50;;;19.30;99.90;;;;;;5005667;28;20414;-69
2022/07/31 03:11:07;;;;;;;4.00;3.70;;;19.20;99.90;;;;;;4988254;28;20411;-69
2022/07/31 03:13:35;;;;;;;5.00;4.23;;;19.10;99.90;;;;;;5005976;28;20263;-68
2022/07/31 03:16:03;;;;;;;4.80;4.47;;;19.10;99.90;;;;;;4987669;28;20454;-69
2022/07/31 03:18:30;;;;;;;5.00;4.57;;;19.10;99.90;;;;;;4987886;28;20935;-69
2022/07/31 03:20:56;;;;;;;3.87;3.57;;;19.10;99.90;;;;;;5005789;28;20415;-67
2022/07/31 03:23:24;;;;;;;4.20;3.90;;;18.90;99.90;;;;;;5006799;28;20457;-70
2022/07/31 03:25:51;;;;;;;4.30;3.90;;;18.70;99.90;;;;;;5006536;28;20482;-69
2022/07/31 03:28:20;;;;;;;4.20;3.90;;;18.70;99.90;;;;;;5006072;28;20800;-68
2022/07/31 03:30:55;;;;;;;4.43;4.07;;;18.80;99.90;;;;;;5005636;28;20960;-67
2022/07/31 03:33:22;;;;;;;6.50;4.83;;;18.70;99.90;;;;;;5006018;28;20403;-69
2022/07/31 03:35:48;;;;;;;3.70;3.40;;;18.70;99.90;;;;;;5008861;28;20445;-68
2022/07/31 03:38:14;;;;;;;4.20;3.90;;;18.70;99.90;;;;;;5007147;28;20450;-68
2022/07/31 03:40:39;;;;;;;4.23;3.83;;;18.70;99.90;;;;;;5020677;28;20451;-70
2022/07/31 03:43:05;;;;;;;8.00;4.50;;;18.70;99.90;;;;;;5005354;28;20205;-68
2022/07/31 03:45:33;;;;;;;4.20;3.90;;;18.70;99.90;;;;;;5004912;28;20638;-70
2022/07/31 03:48:00;;;;;;;7.27;4.07;;;18.70;99.90;;;;;;5004897;28;20431;-70
2022/07/31 03:50:27;;;;;;;5.27;4.10;;;18.70;99.90;;;;;;5005040;28;20795;-68
2022/07/31 03:52:54;;;;;;;5.40;3.87;;;18.70;99.90;;;;;;5020330;28;20516;-68
2022/07/31 03:55:20;;;;;;;4.83;3.83;;;18.80;99.90;;;;;;5012891;28;20783;-70
2022/07/31 03:57:46;;;;;;;4.63;3.90;;;18.80;99.90;;;;;;5005054;28;20430;-68
2022/07/31 04:00:12;;;;;;;3.63;3.33;;;18.70;99.90;;;;;;5004585;28;20184;-69
2022/07/31 04:02:38;;;;;;;4.80;4.30;;;18.80;99.90;;;;;;5004503;28;20179;-68
2022/07/31 04:05:04;;;;;;;4.77;4.37;;;18.70;99.90;;;;;;5003766;28;20531;-70
2022/07/31 04:07:29;;;;;;;3.73;3.43;;;18.70;99.90;;;;;;5015858;28;20180;-68
2022/07/31 04:09:55;;;;;;;5.57;5.17;;;18.80;99.90;;;;;;5005396;28;20422;-69
2022/07/31 04:12:21;;;;;;;4.10;3.70;;;18.80;99.90;;;;;;5004207;28;20648;-68
2022/07/31 04:14:47;;;;;;;4.17;3.80;;;18.70;99.90;;;;;;5004238;28;20179;-69
2022/07/31 04:17:12;;;;;;;4.47;4.07;;;18.80;99.90;;;;;;5021385;28;20418;-68
2022/07/31 04:19:38;;;;;;;4.10;3.43;;;18.90;99.90;;;;;;5008432;28;20182;-69
2022/07/31 04:22:04;;;;;;;4.10;3.80;;;18.90;99.90;;;;;;5003996;28;20180;-70
2022/07/31 04:24:30;;;;;;;3.70;3.40;;;18.90;99.90;;;;;;5004385;28;20207;-69
2022/07/31 04:26:56;;;;;;;4.43;3.97;;;18.80;99.90;;;;;;5019034;28;20441;-67
2022/07/31 04:29:23;;;;;;;5.03;4.53;;;18.80;99.90;;;;;;5023487;28;20395;-69
2022/07/31 04:31:48;;;;;;;4.03;3.73;;;18.80;99.90;;;;;;5011073;28;20411;-68
2022/07/31 04:34:14;;;;;;;4.43;4.03;;;18.80;99.90;;;;;;5015659;28;20425;-69
2022/07/31 04:36:39;;;;;;;4.37;3.97;;;18.80;99.90;;;;;;5006387;28;20322;-71
2022/07/31 04:39:05;;;;;;;4.17;3.87;;;18.80;99.90;;;;;;5004251;28;20176;-70
2022/07/31 04:41:31;;;;;;;4.07;3.77;;;18.80;99.90;;;;;;5004220;28;20179;-71
2022/07/31 04:43:56;;;;;;;4.23;3.87;;;18.90;99.90;;;;;;4985843;28;20305;-71
2022/07/31 04:46:23;;;;;;;5.17;4.07;;;19.10;99.90;;;;;;5003586;28;20443;-71
2022/07/31 04:48:49;;;;;;;4.30;3.90;;;19.10;99.90;;;;;;4986207;28;20266;-70
2022/07/31 04:51:19;;;;;;;5.53;3.97;;;19.10;99.90;;;;;;5003210;28;20415;-69
2022/07/31 04:53:46;;;;;;;4.30;3.90;;;19.20;99.90;;;;;;5007220;28;20419;-69
2022/07/31 04:58:56;;;;;;;4.77;3.70;;;19.40;99.90;;;;;;5007424;28;20425;-70
2022/07/31 05:01:22;;;;;;;3.60;3.40;;;19.50;99.90;;;;;;5007344;28;20485;-70
2022/07/31 05:03:48;;;;;;;6.00;3.40;;;19.60;99.90;;;;;;5007595;28;20218;-70
2022/07/31 05:06:13;;;;;;;4.67;4.10;;;19.60;99.90;;;;;;5013834;28;20450;-69
2022/07/31 05:08:39;;;;;;;4.43;4.10;;;19.60;99.90;;;;;;5011181;28;20180;-70
2022/07/31 05:11:23;;;;;;;4.27;3.87;;;19.70;99.90;;;;;;5016637;28;20887;-69
2022/07/31 05:13:54;;;;;;;4.33;4.03;;;19.90;99.90;;;;;;5015520;28;20251;-70
2022/07/31 05:16:21;;;;;;;5.80;4.10;;;20.00;99.90;;;;;;5013619;28;20974;-70
2022/07/31 05:18:47;;;;;;;4.70;4.30;;;20.10;99.90;;;;;;5026993;28;20425;-70
2022/07/31 05:21:14;;;;;;;4.03;3.73;;;20.30;99.90;;;;;;5026799;28;20414;-70
2022/07/31 05:23:41;;;;;;;4.80;3.50;;;20.50;99.90;;;;;;5027130;28;20452;-70
2022/07/31 05:26:08;;;;;;;4.23;3.83;;;20.60;99.90;;;;;;5009865;28;20804;-69
2022/07/31 05:28:34;;;;;;;4.20;3.57;;;20.80;99.90;;;;;;5021420;28;20436;-71
2022/07/31 05:31:00;;;;;;;4.10;3.70;;;21.00;99.90;;;;;;5014297;28;20410;-69
2022/07/31 05:33:27;;;;;;;4.60;3.90;;;21.10;99.90;;;;;;5013652;28;20498;-71
2022/07/31 05:35:53;;;;;;;3.70;3.40;;;21.20;99.90;;;;;;5011413;28;20203;-71
2022/07/31 05:38:18;;;;;;;3.63;3.33;;;21.30;99.90;;;;;;5012085;28;20501;-71
2022/07/31 05:40:44;;;;;;;4.37;4.07;;;21.40;99.90;;;;;;5009635;28;20509;-70
2022/07/31 05:43:10;;;;;;;4.73;4.33;;;21.50;99.90;;;;;;5026582;28;20211;-70
2022/07/31 05:45:35;;;;;;;3.80;3.50;;;21.60;99.90;;;;;;5017862;28;20200;-71
2022/07/31 05:48:01;;;;;;;4.47;3.80;;;21.60;99.90;;;;;;5019889;28;20183;-71
2022/07/31 05:50:27;;;;;;;3.93;3.63;;;21.70;99.90;;;;;;5012749;28;20263;-70
2022/07/31 05:52:53;;;;;;;3.80;3.50;;;21.70;99.90;;;;;;5018970;28;20188;-70
2022/07/31 05:55:19;;;;;;;4.60;4.20;;;21.90;99.90;;;;;;5020880;28;20197;-70
2022/07/31 05:57:45;;;;;;;4.40;4.00;;;21.90;99.90;;;;;;5020694;28;20430;-70
2022/07/31 06:00:12;;;;;;;4.40;4.10;;;22.00;99.90;;;;;;5026130;28;20476;-68
2022/07/31 06:02:38;;;;;;;4.40;4.00;;;22.00;99.90;;;;;;5015996;28;20181;-68
2022/07/31 06:05:04;;;;;;;3.50;3.20;;;22.00;99.90;;;;;;5008127;28;20465;-68
2022/07/31 06:07:29;;;;;;;4.50;3.60;;;22.20;99.90;;;;;;5025008;28;21075;-68
2022/07/31 06:09:55;;;;;;;4.50;4.13;;;22.40;99.90;;;;;;5013777;28;20450;-68
2022/07/31 06:12:21;;;;;;;3.87;3.57;;;22.40;99.90;;;;;;5026313;28;20183;-68
2022/07/31 06:14:46;;;;;;;4.30;4.00;;;22.40;99.90;;;;;;5011005;28;20263;-69
2022/07/31 06:17:12;;;;;;;3.67;3.37;;;22.60;99.90;;;;;;5007431;28;20638;-68
2022/07/31 06:19:38;;;;;;;4.47;3.97;;;22.70;99.90;;;;;;5025850;28;20183;-69
2022/07/31 06:22:03;;;;;;;4.13;3.83;;;22.80;99.90;;;;;;5024948;28;20706;-68
2022/07/31 06:24:30;;;;;;;4.70;4.30;;;22.50;99.90;;;;;;5014624;28;20465;-67
2022/07/31 06:26:57;;;;;;;4.87;3.57;;;22.60;99.90;;;;;;5025531;28;20275;-69
2022/07/31 06:29:23;;;;;;;6.40;3.70;;;22.50;99.90;;;;;;5025369;28;20422;-70
2022/07/31 06:31:48;;;;;;;4.10;3.70;;;22.70;99.90;;;;;;5007464;28;20417;-70
2022/07/31 06:34:14;;;;;;;4.23;3.83;;;22.90;99.90;;;;;;5025414;28;20184;-69
2022/07/31 06:36:40;;;;;;;4.53;4.10;;;23.00;99.90;;;;;;5018379;28;20203;-70
2022/07/31 06:39:05;;;;;;;4.77;4.27;;;23.20;99.90;;;;;;5025245;28;20213;-70
2022/07/31 06:41:43;;;;;;;3.90;3.60;;;23.20;99.90;;;;;;5025921;28;20178;-70
2022/07/31 06:44:09;;;;;;;4.40;4.00;;;23.40;99.90;;;;;;5006895;28;20743;-69
2022/07/31 06:46:35;;;;;;;3.87;3.57;;;23.40;99.90;;;;;;5019525;28;20429;-70
2022/07/31 06:49:01;;;;;;;3.93;3.63;;;23.40;99.90;;;;;;5010830;28;20407;-70
2022/07/31 06:51:26;;;;;;;4.03;3.67;;;23.50;99.90;;;;;;5004942;28;20258;-70
2022/07/31 06:53:52;;;;;;;5.70;4.03;;;23.70;99.90;;;;;;5005845;28;20215;-70
2022/07/31 06:56:17;;;;;;;4.43;4.03;;;23.80;99.90;;;;;;5005531;28;20775;-69
2022/07/31 06:58:43;;;;;;;3.77;3.37;;;23.80;99.90;;;;;;5005790;28;20218;-70
2022/07/31 07:01:09;;;;;;;3.97;3.57;;;23.90;99.90;;;;;;5005583;28;20605;-70
2022/07/31 07:03:34;;;;;;;4.43;4.00;;;23.80;99.90;;;;;;5005854;28;20172;-70
2022/07/31 07:06:02;;;;;;;5.30;3.23;;;23.70;99.90;;;;;;5012038;28;20211;-70
2022/07/31 07:08:28;;;;;;;3.93;3.73;;;23.90;99.90;;;;;;4997588;28;20195;-70
2022/07/31 07:10:54;;;;;;;4.30;3.90;;;23.90;99.90;;;;;;5019668;28;20493;-70
2022/07/31 07:13:19;;;;;;;4.40;4.00;;;23.80;99.90;;;;;;5021058;28;20545;-70
2022/07/31 07:15:45;;;;;;;6.00;3.57;;;23.70;99.90;;;;;;5005740;28;20219;-70
2022/07/31 07:18:11;;;;;;;4.20;3.90;;;23.70;99.90;;;;;;5025424;28;20179;-70
2022/07/31 07:20:36;;;;;;;4.40;4.00;;;23.60;99.90;;;;;;5007792;28;20239;-69
2022/07/31 07:23:02;;;;;;;4.07;3.67;;;23.50;99.90;;;;;;5015966;28;20179;-69
2022/07/31 07:25:28;;;;;;;4.30;3.47;;;23.70;99.90;;;;;;5024799;28;20273;-70
2022/07/31 07:27:55;;;;;;;4.67;4.20;;;24.00;99.90;;;;;;5024857;28;20181;-70
2022/07/31 07:30:21;;;;;;;4.10;3.80;;;24.30;99.90;;;;;;5024829;28;20270;-71
2022/07/31 07:32:47;;;;;;;4.47;4.00;;;24.40;99.90;;;;;;5011979;28;20410;-70
2022/07/31 07:35:12;;;;;;;4.37;3.97;;;24.20;99.90;;;;;;5016519;28;20485;-69
2022/07/31 07:37:39;;;;;;;4.80;4.23;;;24.20;99.90;;;;;;5005127;28;20180;-70
2022/07/31 07:40:07;;;;;;;4.47;4.07;;;24.00;99.90;;;;;;5005450;28;20287;-69
2022/07/31 07:42:32;;;;;;;4.47;4.07;;;24.40;99.90;;;;;;5005070;28;20407;-70
2022/07/31 07:44:58;;;;;;;4.60;4.20;;;24.00;99.90;;;;;;5004809;28;20466;-70
2022/07/31 07:47:23;;;;;;;4.67;4.27;;;23.90;99.90;;;;;;5003553;28;20656;-70
2022/07/31 07:49:49;;;;;;;5.60;5.10;;;24.20;99.90;;;;;;5024125;28;20266;-70
2022/07/31 07:52:15;;;;;;;5.20;4.70;;;24.20;99.90;;;;;;5016611;28;20255;-70
2022/07/31 07:54:42;;;;;;;5.17;4.77;;;24.00;99.90;;;;;;5006638;28;20500;-70
2022/07/31 07:57:08;;;;;;;4.57;4.10;;;24.20;99.90;;;;;;5018238;28;20171;-70
2022/07/31 07:59:34;;;;;;;4.93;4.50;;;24.30;99.90;;;;;;5004433;28;20419;-70
2022/07/31 08:01:59;;;;;;;4.37;4.07;;;24.40;99.90;;;;;;5008426;28;20413;-71
2022/07/31 08:04:25;;;;;;;5.10;4.70;;;24.30;99.90;;;;;;5003907;28;20535;-71
2022/07/31 08:06:51;;;;;;;4.50;4.10;;;24.40;99.90;;;;;;5009610;28;20223;-70
2022/07/31 08:09:17;;;;;;;4.87;4.37;;;24.30;99.90;;;;;;5024632;28;20221;-70
2022/07/31 08:11:42;;;;;;;4.77;4.37;;;24.80;99.90;;;;;;5014819;28;20742;-68
2022/07/31 08:14:08;;;;;;;4.50;4.10;;;24.80;99.90;;;;;;5021321;28;20179;-70
2022/07/31 08:16:34;;;;;;;4.10;3.70;;;25.10;99.90;;;;;;5005698;28;20219;-69
2022/07/31 08:18:59;;;;;;;4.97;4.47;;;25.50;99.90;;;;;;5004372;28;20191;-71
2022/07/31 08:21:25;;;;;;;4.13;3.80;;;25.90;99.90;;;;;;5003900;28;20179;-70
2022/07/31 08:23:51;;;;;;;5.17;4.40;;;25.80;99.90;;;;;;5008426;28;20175;-71
2022/07/31 08:26:17;;;;;;;4.70;4.30;;;25.70;99.90;;;;;;5010951;28;20605;-69
2022/07/31 08:28:42;;;;;;;4.30;4.00;;;25.80;99.90;;;;;;5024590;28;20406;-70
2022/07/31 08:31:08;;;;;;;5.03;4.20;;;25.80;99.90;;;;;;5024695;28;20183;-69
2022/07/31 08:33:34;;;;;;;5.23;4.80;;;25.70;99.90;;;;;;5024181;28;20176;-68
2022/07/31 08:36:00;;;;;;;4.23;3.83;;;25.60;99.90;;;;;;5004476;28;20207;-69
2022/07/31 08:38:26;;;;;;;4.37;3.97;;;25.70;99.90;;;;;;5004024;28;20443;-69
2022/07/31 08:40:52;;;;;;;6.93;4.87;;;25.80;99.90;;;;;;5004146;28;20410;-70
2022/07/31 08:43:17;;;;;;;4.37;3.97;;;25.90;99.90;;;;;;5003884;28;20414;-69
2022/07/31 08:45:44;;;;;;;3.73;3.53;;;25.90;99.90;;;;;;4986567;28;20200;-70
2022/07/31 08:48:10;;;;;;;3.90;3.60;;;25.90;99.90;;;;;;5003961;28;20230;-71
2022/07/31 08:50:43;;;;;;;4.00;3.60;;;25.80;99.90;;;;;;5003526;28;20410;-68
2022/07/31 08:53:12;;;;;;;4.37;3.50;;;25.70;99.90;;;;;;5008229;28;20717;-69
2022/07/31 08:55:38;;;;;;;4.87;4.30;;;25.70;99.90;;;;;;4996422;28;20742;-69
2022/07/31 08:58:04;;;;;;;4.50;3.90;;;25.80;99.90;;;;;;5015762;28;20406;-70
2022/07/31 09:00:32;;;;;;;3.77;3.47;;;25.50;99.90;;;;;;5008404;28;20176;-69
2022/07/31 09:02:57;;;;;;;6.30;5.70;;;25.60;99.90;;;;;;5009171;28;20240;-69
2022/07/31 09:05:23;;;;;;;3.63;3.43;;;25.50;99.90;;;;;;5008777;28;20466;-70
2022/07/31 09:07:49;;;;;;;4.07;3.77;;;25.80;99.90;;;;;;5012551;28;20171;-69
2022/07/31 09:10:27;;;;;;;5.80;3.57;;;25.80;99.30;;;;;;5003948;28;20779;-70
2022/07/31 09:12:54;;;;;;;3.37;3.10;;;26.00;98.00;;;;;;5003959;28;20923;-71
2022/07/31 09:15:28;;;;;;;12.73;3.00;;;25.80;95.50;;;;;;5021675;28;20804;-69
2022/07/31 09:17:54;;;;;;;4.40;3.07;;;25.80;95.20;;;;;;5023523;28;20409;-70
2022/07/31 09:20:25;;;;;;;5.00;3.40;;;25.90;95.20;;;;;;5023061;28;20414;-70
2022/07/31 09:23:05;;;;;;;4.33;3.10;;;26.30;95.80;;;;;;5009300;28;20414;-70
2022/07/31 09:25:31;;;;;;;3.20;2.77;;;26.30;94.60;;;;;;5003337;28;20458;-70
2022/07/31 09:28:05;;;;;;;3.83;3.43;;;26.30;94.60;;;;;;5005357;28;20419;-70
2022/07/31 09:30:31;;;;;;;3.67;2.70;;;26.70;94.60;;;;;;5009681;28;20255;-70
2022/07/31 09:33:17;;;;;;;3.47;2.90;;;27.00;92.80;;;;;;5003700;28;20461;-71
2022/07/31 09:35:47;;;;;;;3.50;3.00;;;27.20;92.30;;;;;;5002573;28;20439;-69
2022/07/31 09:38:12;;;;;;;4.47;3.13;;;27.40;92.30;;;;;;5004210;28;20477;-68
2022/07/31 09:40:42;;;;;;;4.40;2.63;;;27.40;92.20;;;;;;5007261;28;21152;-70
2022/07/31 09:43:14;;;;;;;2.93;2.57;;;27.70;91.00;;;;;;5006996;28;20180;-68
2022/07/31 09:45:42;;;;;;;3.60;3.23;;;27.80;90.40;;;;;;5007113;28;20489;-66
2022/07/31 09:48:11;;;;;;;4.17;2.70;;;27.80;89.90;;;;;;5007104;28;20779;-68
2022/07/31 09:50:37;;;;;;;2.67;2.27;;;27.90;91.00;;;;;;5006212;28;20403;-70
2022/07/31 09:53:05;;;;;;;2.83;2.63;;;27.80;88.80;;;;;;5007466;28;20467;-69
2022/07/31 09:55:31;;;;;;;2.60;2.40;;;28.00;86.40;;;;;;5006515;28;20435;-69
2022/07/31 09:57:58;;;;;;;5.20;2.80;;;27.90;87.50;;;;;;5006892;28;20415;-68
2022/07/31 10:00:25;;;;;;;2.67;2.43;;;28.30;85.70;;;;;;5019381;28;20690;-69
2022/07/31 10:02:56;;;;;;;3.20;2.90;;;28.40;85.00;;;;;;5026372;28;20972;-69
2022/07/31 10:05:23;;;;;;;2.80;2.43;;;28.70;83.70;;;;;;5021016;28;20475;-69
2022/07/31 10:07:49;;;;;;;3.63;2.73;;;28.70;82.20;;;;;;5006205;28;20410;-70
2022/07/31 10:10:16;;;;;;;2.53;2.33;;;28.60;82.20;;;;;;5006601;28;20409;-69
2022/07/31 10:12:47;;;;;;;4.80;2.83;;;28.80;82.60;;;;;;5006735;28;20439;-71
2022/07/31 10:15:15;;;;;;;2.53;2.33;;;28.90;81.50;;;;;;5006571;28;20995;-70
2022/07/31 10:17:45;;;;;;;3.20;2.60;;;28.80;81.30;;;;;;5006433;28;20403;-68
2022/07/31 10:20:20;;;;;;;2.37;2.17;;;28.90;80.50;;;;;;5006326;28;20406;-69
2022/07/31 10:22:48;;;;;;;2.90;2.60;;;29.10;82.50;;;;;;5006567;28;20449;-70
2022/07/31 10:25:34;;;;;;;2.37;2.27;;;29.50;80.20;;;;;;5006959;28;20462;-69
2022/07/31 10:28:01;;;;;;;3.67;2.30;;;29.90;76.60;;;;;;5006711;28;20426;-70
2022/07/31 10:30:26;;;;;;;3.07;2.83;;;30.00;77.40;;;;;;5016543;28;20412;-69
2022/07/31 10:32:52;;;;;;;2.57;2.30;;;29.60;79.80;;;;;;5008552;28;20903;-70
2022/07/31 10:35:21;;;;;;;2.90;2.20;;;29.60;77.70;;;;;;5025079;28;20199;-69
2022/07/31 10:37:53;;;;;;;2.57;2.37;;;28.90;77.80;;;;;;5011034;28;20962;-69
2022/07/31 10:40:43;;;;;;;2.30;2.07;;;29.10;82.00;;;;;;5025951;28;20418;-68
2022/07/31 10:43:09;;;;;;;2.30;2.10;;;29.70;78.30;;;;;;5011945;28;20469;-70
2022/07/31 10:45:52;;;;;;;3.33;2.40;;;29.80;73.90;;;;;;5006072;28;20467;-70
2022/07/31 10:48:19;;;;;;;5.80;3.27;;;30.20;75.30;;;;;;5005990;28;20164;-68
2022/07/31 10:50:45;;;;;;;3.83;3.47;;;30.20;77.40;;;;;;5007375;28;20407;-69
2022/07/31 10:53:14;;;;;;;4.00;3.60;;;30.00;77.60;;;;;;5006122;28;20453;-71
2022/07/31 10:55:40;;;;;;;4.93;3.50;;;29.90;78.70;;;;;;5005613;28;20505;-68
2022/07/31 10:58:12;;;;;;;3.60;3.30;;;29.90;79.00;;;;;;5007463;28;20422;-68
2022/07/31 11:00:39;;;;;;;3.50;3.20;;;30.00;80.20;;;;;;5013595;28;20781;-69
2022/07/31 11:03:21;;;;;;;2.70;2.50;;;29.60;76.80;;;;;;5017880;28;20447;-69
2022/07/31 11:05:55;;;;;;;5.10;3.27;;;29.10;76.80;;;;;;5020791;28;20493;-69
2022/07/31 11:08:20;;;;;;;3.77;3.40;;;28.80;78.10;;;;;;5005766;28;20411;-69
2022/07/31 11:10:54;;;;;;;3.00;2.70;;;28.80;80.40;;;;;;5005680;28;20437;-68
2022/07/31 11:13:24;;;;;;;4.77;2.83;;;28.90;81.50;;;;;;5006408;28;20183;-68
2022/07/31 11:15:53;;;;;;;4.33;2.90;;;28.80;80.10;;;;;;5024703;28;20904;-68
2022/07/31 11:18:21;;;;;;;3.23;2.93;;;28.70;80.50;;;;;;5024800;28;20713;-70
2022/07/31 11:20:58;;;;;;;3.00;2.60;;;28.90;81.50;;;;;;5024692;28;20457;-70
2022/07/31 11:23:28;;;;;;;3.43;2.43;;;28.70;80.00;;;;;;5007339;28;20409;-68
2022/07/31 11:26:02;;;;;;;3.77;3.00;;;28.70;80.80;;;;;;5005310;28;20505;-69
2022/07/31 11:28:28;;;;;;;3.67;2.70;;;29.60;79.50;;;;;;5005095;28;21249;-68
2022/07/31 11:30:54;;;;;;;2.33;2.10;;;30.70;76.40;;;;;;5005401;28;20415;-68
2022/07/31 11:33:42;;;;;;;2.97;2.20;;;32.60;69.10;;;;;;5015944;28;20176;-69
2022/07/31 11:36:23;;;;;;;2.83;2.53;;;34.90;65.10;;;;;;5017958;28;20427;-69
2022/07/31 11:38:51;;;;;;;2.57;2.37;;;35.50;59.10;;;;;;5005344;28;20417;-70
2022/07/31 11:41:22;;;;;;;2.93;2.10;;;35.20;58.10;;;;;;4986949;28;20415;-69
2022/07/31 11:43:50;;;;;;;3.87;2.57;;;34.70;58.40;;;;;;5004808;28;20406;-68
2022/07/31 11:46:27;;;;;;;2.40;2.20;;;34.00;59.20;;;;;;5003574;28;20446;-70
2022/07/31 11:48:53;;;;;;;2.63;2.43;;;33.20;60.50;;;;;;5004856;28;20398;-68
2022/07/31 11:51:20;;;;;;;3.17;2.87;;;32.70;61.20;;;;;;5004701;28;20406;-69
2022/07/31 11:53:47;;;;;;;2.30;2.10;;;31.70;63.80;;;;;;5004610;28;20437;-70
2022/07/31 11:56:16;;;;;;;2.73;2.53;;;31.50;65.50;;;;;;5004881;28;20445;-69
2022/07/31 11:58:50;;;;;;;3.10;2.47;;;31.50;64.40;;;;;;5004778;28;20439;-69
2022/07/31 12:01:16;;;;;;;2.10;2.00;;;31.70;64.40;;;;;;5004478;28;20770;-68
2022/07/31 12:03:42;;;;;;;2.57;2.37;;;32.70;63.40;;;;;;5004840;28;21029;-69
2022/07/31 12:06:09;;;;;;;3.93;2.17;;;34.40;59.50;;;;;;5003428;28;20850;-70
2022/07/31 12:08:35;;;;;;;3.60;2.00;;;34.80;57.50;;;;;;5003900;28;20477;-71
2022/07/31 12:11:03;;;;;;;1.97;1.87;;;34.70;56.20;;;;;;5005145;28;20535;-70
2022/07/31 12:13:29;;;;;;;3.00;2.00;;;34.30;56.90;;;;;;5004318;28;20423;-68
2022/07/31 12:16:07;;;;;;;2.20;2.00;;;34.10;57.30;;;;;;5004279;28;21054;-68
2022/07/31 12:18:47;;;;;;;2.20;1.97;;;33.40;58.50;;;;;;5011994;28;20183;-69
2022/07/31 12:21:14;;;;;;;3.40;2.20;;;33.50;58.20;;;;;;5023733;28;20879;-69
2022/07/31 12:23:50;;;;;;;2.00;1.80;;;33.50;57.90;;;;;;5023798;28;20424;-69
2022/07/31 12:26:26;;;;;;;2.70;2.00;;;33.40;57.90;;;;;;5023540;28;20614;-69
2022/07/31 12:29:03;;;;;;;4.00;1.87;;;33.40;58.30;;;;;;5024051;28;20470;-71
2022/07/31 12:31:31;;;;;;;2.37;2.17;;;34.30;56.60;;;;;;5011513;28;20402;-68
2022/07/31 12:33:57;;;;;;;2.60;2.10;;;35.60;53.70;;;;;;4986228;28;20426;-67
2022/07/31 12:36:22;;;;;;;3.30;2.00;;;35.30;53.80;;;;;;5003623;28;20438;-68
2022/07/31 12:39:02;;;;;;;1.80;1.70;;;35.60;54.20;;;;;;5003888;28;20195;-67
2022/07/31 12:41:29;;;;;;;2.00;1.80;;;34.60;54.90;;;;;;5011089;28;20739;-68
2022/07/31 12:44:06;;;;;;;2.23;2.00;;;33.90;56.50;;;;;;5023306;28;20713;-67
2022/07/31 12:46:37;;;;;;;2.03;1.93;;;33.00;56.80;;;;;;5023781;28;20425;-68
2022/07/31 12:49:04;;;;;;;2.40;1.90;;;32.10;58.60;;;;;;5023671;28;20991;-67
2022/07/31 12:51:33;;;;;;;10.13;5.00;;;31.90;60.50;;;;;;5005463;28;20421;-68